Fort Loudon, Pennsylvania
Current Conditions -  °F | °C
As of 5:18 PM on Sunday 25 Jan 2015 (Local Time) from KHGR Reporting Station
Light Rain Light Rain  
Wind Chill: 37°   Ceiling: 2800
Heat Index: 40°   Visibility: 7mi
Dew Point: 31°   Wind: 5mph
Humidity: 70%   Direction: 90°E
Pressure: 29.81"   Gusts: NA
Location:  39.91°N, 77.9°W
Report Text: KHGR 252218Z 09004KT 7SM -RA BKN028 OVC037 04/M01 A2981 RMK AO2 RAB12 P0000 T00441006
Loading
Personal Weather Stations






























Interactive Weather Map New forecast layout! Learn more

10-Day Weather Forecast

Advertisements
Track Severe Weather on mobile